Time;durP1;ratioP1;P1;durP2;ratioP2;P2;SDS_P1;SDS_P2;PMS_P1;PMS_P2;Temp;Humidity;BMP_temperature;BMP_pressure;BME280_temperature;BME280_humidity;BME280_pressure;Samples;Min_cycle;Max_cycle;Signal;HPM_P1;HPM_P2
2022/11/02 00:01:20;;;;;;;;;;;;;;;21.58;62.48;100720.94;103508;1295;125061;-56
2022/11/02 00:03:46;;;;;;;;;;;;;;;21.58;62.50;100716.41;103667;1296;104440;-57
2022/11/02 00:06:13;;;;;;;;;;;;;;;21.59;62.42;100719.77;103660;1294;103945;-58
2022/11/02 00:08:39;;;;;;;;;20.00;20.00;;;;;21.59;62.47;100717.16;103674;1292;103891;-58
2022/11/02 00:11:06;;;;;;;;;;;;;;;21.60;62.42;100716.70;103632;1288;125563;-59
2022/11/02 00:13:32;;;;;;;;;;;;;;;21.62;62.55;100721.09;103543;1289;104242;-59
2022/11/02 00:15:59;;;;;;;;;20.00;18.00;;;;;21.63;62.42;100723.48;103587;1289;104266;-58
2022/11/02 00:18:25;;;;;;;;;23.00;19.00;;;;;21.64;62.52;100723.40;103582;1288;125523;-58
2022/11/02 00:20:52;;;;;;;;;17.00;16.00;;;;;21.63;62.47;100727.05;103673;1289;124679;-59
2022/11/02 00:23:18;;;;;;;;;;;;;;;21.63;62.55;100728.68;103556;1290;126790;-59
2022/11/02 00:25:45;;;;;;;;;19.00;18.00;;;;;21.64;62.53;100729.15;103521;1294;104942;-59
2022/11/02 00:28:12;;;;;;;;;19.00;18.00;;;;;21.64;62.81;100728.39;103661;1289;124997;-59
2022/11/02 00:30:38;;;;;;;;;19.00;19.00;;;;;21.64;62.81;100727.85;103613;1288;125017;-58
2022/11/02 00:33:05;;;;;;;;;21.00;18.00;;;;;21.64;62.79;100728.77;105344;1296;125849;-57
2022/11/02 00:35:31;;;;;;;;;;;;;;;21.64;62.75;100733.89;104993;1280;125354;-58
2022/11/02 00:37:58;;;;;;;;;16.00;15.00;;;;;21.64;62.62;100736.38;103653;1289;103867;-58
2022/11/02 00:40:24;;;;;;;;;22.00;17.00;;;;;21.65;62.82;100735.78;103550;1290;124685;-58
2022/11/02 00:42:51;;;;;;;;;18.00;16.00;;;;;21.65;62.84;100737.96;103546;1290;125059;-57
2022/11/02 00:45:18;;;;;;;;;19.00;17.50;;;;;21.64;62.73;100739.14;103620;1281;124836;-57
2022/11/02 00:47:44;;;;;;;;;16.00;15.00;;;;;21.65;62.99;100738.89;105216;1294;125745;-58
2022/11/02 00:50:11;;;;;;;;;18.00;16.00;;;;;21.65;62.93;100743.77;104609;1294;124712;-58
2022/11/02 00:52:37;;;;;;;;;22.00;19.50;;;;;21.65;62.82;100748.67;103635;1280;125225;-58
2022/11/02 00:55:04;;;;;;;;;20.00;18.00;;;;;21.65;62.81;100748.97;103562;1294;124965;-57
2022/11/02 00:57:31;;;;;;;;;17.00;17.00;;;;;21.66;62.99;100745.44;103529;1284;125826;-55
2022/11/02 00:59:57;;;;;;;;;24.00;22.00;;;;;21.65;63.00;100748.25;103615;1289;125139;-57
2022/11/02 01:02:24;;;;;;;;;17.00;16.00;;;;;21.65;63.07;100746.48;103705;1287;124855;-57
2022/11/02 01:04:50;;;;;;;;;19.00;19.00;;;;;21.66;63.08;100747.28;103656;1287;125084;-57
2022/11/02 01:07:17;;;;;;;;;20.00;17.00;;;;;21.66;63.11;100751.06;103530;1288;125102;-57
2022/11/02 01:09:43;;;;;;;;;;;;;;;21.66;63.16;100746.15;103593;1290;125952;-56
2022/11/02 01:12:10;;;;;;;;;15.00;15.00;;;;;21.66;63.33;100747.36;103681;1289;103830;-58
2022/11/02 01:14:37;;;;;;;;;;;;;;;21.66;63.22;100746.40;103713;1288;125332;-58
2022/11/02 01:17:03;;;;;;;;;19.00;17.00;;;;;21.66;63.26;100745.73;105730;1289;104354;-59
2022/11/02 01:19:30;;;;;;;;;17.00;15.00;;;;;21.66;63.24;100752.20;105626;1289;125604;-58
2022/11/02 01:21:56;;;;;;;;;18.50;17.00;;;;;21.65;63.26;100757.36;105273;1304;686668;-58
2022/11/02 01:24:23;;;;;;;;;16.00;14.00;;;;;21.64;63.18;100756.02;105860;1289;125323;-58
2022/11/02 01:26:49;;;;;;;;;22.00;20.00;;;;;21.63;63.15;100756.27;105826;1280;125219;-58
2022/11/02 01:29:16;;;;;;;;;13.00;13.00;;;;;21.59;63.05;100754.09;105742;1287;125297;-58
2022/11/02 01:31:42;;;;;;;;;20.00;17.00;;;;;21.57;63.10;100757.67;105699;1280;125310;-58
2022/11/02 01:34:09;;;;;;;;;18.00;18.00;;;;;21.55;63.02;100754.70;104223;1290;126031;-58
2022/11/02 01:36:35;;;;;;;;;17.00;16.00;;;;;21.53;62.91;100755.88;103870;1290;125449;-58
2022/11/02 01:39:02;;;;;;;;;19.00;17.00;;;;;21.51;62.98;100757.25;103826;1295;125674;-58
2022/11/02 01:41:28;;;;;;;;;;;;;;;21.49;62.85;100752.80;105673;1282;125131;-57
2022/11/02 01:43:55;;;;;;;;;11.00;11.00;;;;;21.48;62.58;100753.81;105630;1296;104377;-58
2022/11/02 01:46:21;;;;;;;;;19.00;17.00;;;;;21.48;62.50;100750.04;103730;1288;125780;-58
2022/11/02 01:48:48;;;;;;;;;16.00;16.00;;;;;21.48;62.36;100747.43;103768;1310;124994;-58
2022/11/02 01:51:14;;;;;;;;;;;;;;;21.48;62.50;100742.48;103743;1300;124879;-56
2022/11/02 01:53:41;;;;;;;;;15.00;15.00;;;;;21.47;62.36;100743.98;103994;1304;104479;-58
2022/11/02 01:56:07;;;;;;;;;16.00;16.00;;;;;21.48;62.41;100747.71;104034;1310;125711;-58
2022/11/02 01:58:34;;;;;;;;;16.00;15.00;;;;;21.48;62.55;100749.02;103821;1303;125263;-58
2022/11/02 02:01:01;;;;;;;;;16.00;15.00;;;;;21.47;62.48;100748.95;103730;1304;125646;-58
2022/11/02 02:03:27;;;;;;;;;15.00;12.00;;;;;21.47;62.40;100749.14;104988;1304;125061;-58
2022/11/02 02:05:54;;;;;;;;;16.00;16.00;;;;;21.46;62.40;100748.90;103651;1304;125312;-57
2022/11/02 02:08:20;;;;;;;;;17.00;16.50;;;;;21.46;62.51;100746.51;103836;1303;125738;-59
2022/11/02 02:10:47;;;;;;;;;18.00;16.00;;;;;21.46;62.51;100743.27;104753;1310;125402;-57
2022/11/02 02:13:13;;;;;;;;;17.00;15.00;;;;;21.45;62.41;100745.08;103634;1303;125268;-59
2022/11/02 02:15:40;;;;;;;;;;;;;;;21.44;62.56;100749.32;104027;1302;124878;-58
2022/11/02 02:18:07;;;;;;;;;16.50;15.00;;;;;21.44;62.37;100746.67;103789;1300;105392;-57
2022/11/02 02:20:33;;;;;;;;;;;;;;;21.43;62.44;100750.91;104360;1297;125174;-57
2022/11/02 02:23:00;;;;;;;;;;;;;;;21.43;62.58;100752.92;103784;1310;104513;-58
2022/11/02 02:25:26;;;;;;;;;;;;;;;21.43;62.50;100750.45;103564;1310;104473;-58
2022/11/02 02:27:53;;;;;;;;;17.00;15.00;;;;;21.43;62.46;100750.20;103732;1310;104796;-57
2022/11/02 02:30:19;;;;;;;;;14.50;14.00;;;;;21.44;62.51;100752.84;103783;1296;124831;-58
2022/11/02 02:32:46;;;;;;;;;;;;;;;21.42;62.48;100751.38;104081;1310;125848;-58
2022/11/02 02:35:12;;;;;;;;;12.50;11.00;;;;;21.43;62.49;100752.42;103661;1297;104265;-57
2022/11/02 02:37:39;;;;;;;;;15.00;14.00;;;;;21.42;62.49;100753.90;103649;1311;125087;-57
2022/11/02 02:40:06;;;;;;;;;18.50;17.00;;;;;21.42;62.55;100757.25;105276;1296;125234;-57
2022/11/02 02:42:32;;;;;;;;;;;;;;;21.41;62.52;100760.77;103750;1303;124854;-57
2022/11/02 02:44:59;;;;;;;;;17.50;14.50;;;;;21.41;62.61;100759.35;103796;1296;103838;-58
2022/11/02 02:47:26;;;;;;;;;13.00;12.00;;;;;21.41;62.57;100755.91;103683;1311;125371;-57
2022/11/02 02:49:53;;;;;;;;;16.00;14.00;;;;;21.41;62.63;100755.02;103855;1298;124876;-57
2022/11/02 02:52:19;;;;;;;;;12.50;9.00;;;;;21.41;62.59;100760.48;103784;1297;124627;-57
2022/11/02 02:54:46;;;;;;;;;18.00;15.00;;;;;21.41;62.61;100764.52;103679;1310;124937;-58
2022/11/02 02:57:12;;;;;;;;;11.00;10.00;;;;;21.41;62.61;100763.42;103796;1310;124820;-57
2022/11/02 02:59:39;;;;;;;;;12.00;11.00;;;;;21.40;62.57;100764.72;103637;1303;125597;-57
2022/11/02 03:02:06;;;;;;;;;17.00;16.00;;;;;21.40;62.71;100761.66;103714;1303;124755;-57
2022/11/02 03:04:32;;;;;;;;;13.00;13.00;;;;;21.40;62.81;100757.13;103735;1287;125212;-57
2022/11/02 03:06:59;;;;;;;;;12.00;12.00;;;;;21.41;62.80;100749.45;103682;1296;124814;-57
2022/11/02 03:09:25;;;;;;;;;15.00;14.00;;;;;21.40;62.81;100759.77;103817;1310;124664;-57
2022/11/02 03:11:52;;;;;;;;;;;;;;;21.40;62.80;100760.40;103548;1294;124958;-57
2022/11/02 03:14:18;;;;;;;;;16.00;14.00;;;;;21.40;62.79;100759.69;103763;1290;103814;-57
2022/11/02 03:16:45;;;;;;;;;;;;;;;21.41;62.87;100763.38;104211;1287;125991;-57
2022/11/02 03:19:11;;;;;;;;;14.50;13.00;;;;;21.40;62.79;100757.71;103617;1310;104405;-56
2022/11/02 03:21:38;;;;;;;;;16.50;13.50;;;;;21.40;62.94;100751.04;103878;1294;124835;-57
2022/11/02 03:24:05;;;;;;;;;16.00;12.00;;;;;21.39;62.83;100754.94;105944;1289;126128;-58
2022/11/02 03:26:31;;;;;;;;;14.50;13.50;;;;;21.39;62.90;100754.73;104222;1296;125679;-57
2022/11/02 03:28:58;;;;;;;;;14.00;13.00;;;;;21.39;62.91;100759.98;103829;1311;125406;-57
2022/11/02 03:31:25;;;;;;;;;;;;;;;21.39;62.83;100756.24;103630;1297;125265;-58
2022/11/02 03:33:51;;;;;;;;;12.00;12.00;;;;;21.39;62.94;100757.30;103722;1290;104239;-56
2022/11/02 03:36:18;;;;;;;;;13.50;13.50;;;;;21.39;62.90;100763.16;103680;1303;124747;-57
2022/11/02 03:38:44;;;;;;;;;15.00;13.00;;;;;21.39;62.91;100766.27;103822;1289;124704;-57
2022/11/02 03:41:11;;;;;;;;;16.00;13.50;;;;;21.38;62.89;100765.27;103705;1297;124834;-57
2022/11/02 03:43:38;;;;;;;;;;;;;;;21.38;63.03;100768.96;103676;1289;124835;-58
2022/11/02 03:46:04;;;;;;;;;16.00;15.00;;;;;21.37;62.86;100766.23;103722;1310;104927;-57
2022/11/02 03:48:31;;;;;;;;;17.50;15.00;;;;;21.38;62.93;100767.14;103770;1311;125244;-57
2022/11/02 03:50:57;;;;;;;;;;;;;;;21.37;62.91;100766.90;103716;1311;124682;-57
2022/11/02 03:53:24;;;;;;;;;16.50;13.00;;;;;21.37;63.02;100765.92;103732;1304;104406;-56
2022/11/02 03:55:50;;;;;;;;;13.00;13.00;;;;;21.37;62.93;100769.38;103894;1304;124883;-57
2022/11/02 03:58:17;;;;;;;;;13.50;13.50;;;;;21.37;63.13;100768.45;103793;1310;125573;-57
2022/11/02 04:00:44;;;;;;;;;;;;;;;21.37;62.97;100774.50;103729;1294;124812;-57
2022/11/02 04:03:10;;;;;;;;;15.50;13.50;;;;;21.36;62.93;100779.54;103696;1311;104242;-58
2022/11/02 04:05:37;;;;;;;;;10.00;10.00;;;;;21.36;63.05;100780.08;104222;1296;125077;-57
2022/11/02 04:08:21;;;;;;;;;17.00;14.00;;;;;21.36;63.13;100782.80;103885;1294;124804;-58
2022/11/02 04:16:16;;;;;;;;;14.00;12.00;;;;;21.30;62.86;100784.95;103691;1312;124710;-58
2022/11/02 04:21:26;;;;;;;;;13.00;13.00;;;;;21.34;63.16;100789.05;103704;1288;124486;-57
2022/11/02 04:26:37;;;;;;;;;14.00;11.50;;;;;21.34;63.22;100788.73;103870;1288;124650;-58
2022/11/02 04:29:03;;;;;;;;;13.00;11.00;;;;;21.35;63.30;100789.19;103744;1310;125742;-58
2022/11/02 04:31:30;;;;;;;;;13.00;12.00;;;;;21.34;63.27;100781.79;103608;1296;125621;-58
2022/11/02 04:33:58;;;;;;;;;11.00;11.00;;;;;21.34;63.31;100781.92;103787;1306;124909;-57
